createdAt,value
2017-02-15T00:01:05.992Z,93.85
2017-02-15T00:06:03.241Z,93.75
2017-02-15T00:10:59.182Z,94.42
2017-02-15T00:15:55.801Z,94.79
2017-02-15T00:20:51.859Z,94.98
2017-02-15T00:25:48.339Z,94.65
2017-02-15T00:30:44.883Z,94.84
2017-02-15T00:35:41.079Z,94.84
2017-02-15T00:40:37.247Z,95.40
2017-02-15T00:45:33.346Z,95.40
2017-02-15T00:50:29.679Z,95.59
2017-02-15T00:55:25.964Z,95.31
2017-02-15T01:00:22.363Z,95.40
2017-02-15T01:05:18.189Z,95.78
2017-02-15T01:10:14.768Z,95.40
2017-02-15T01:15:11.019Z,95.40
2017-02-15T01:20:07.313Z,95.78
2017-02-15T01:25:03.567Z,95.21
2017-02-15T01:30:00.315Z,94.74
2017-02-15T01:34:56.531Z,95.21
2017-02-15T01:39:52.691Z,95.21
2017-02-15T01:44:49.765Z,96.07
2017-02-15T01:49:46.249Z,94.93
2017-02-15T01:54:43.210Z,95.03
2017-02-15T01:59:39.588Z,94.93
2017-02-15T02:04:35.728Z,94.65
2017-02-15T02:09:32.028Z,94.93
2017-02-15T02:14:27.967Z,94.74
2017-02-15T02:19:24.624Z,94.84
2017-02-15T02:24:21.000Z,95.69
2017-02-15T02:29:17.492Z,95.21
2017-02-15T02:34:14.742Z,95.31
2017-02-15T02:39:10.764Z,96.07
2017-02-15T02:44:07.775Z,96.54
2017-02-15T02:49:04.222Z,96.35
2017-02-15T02:54:00.572Z,96.07
2017-02-15T02:58:56.882Z,96.35
2017-02-15T03:03:52.940Z,96.07
2017-02-15T03:08:49.500Z,96.54
2017-02-15T03:13:45.919Z,95.97
2017-02-15T03:18:43.120Z,95.40
2017-02-15T03:23:39.797Z,96.07
2017-02-15T03:28:35.898Z,95.64
2017-02-15T03:33:32.159Z,95.50
2017-02-15T03:38:28.596Z,95.88
2017-02-15T03:43:25.107Z,95.97
2017-02-15T03:48:21.616Z,95.21
2017-02-15T03:53:19.252Z,95.07
2017-02-15T03:58:15.361Z,95.83
2017-02-15T04:03:11.914Z,95.54
2017-02-15T04:08:08.116Z,95.92
2017-02-15T04:13:04.494Z,96.68
2017-02-15T04:18:00.993Z,96.87
2017-02-15T04:22:57.376Z,96.49
2017-02-15T04:27:53.514Z,97.25
2017-02-15T04:32:49.732Z,96.30
2017-02-15T04:37:46.042Z,96.78
2017-02-15T04:42:42.292Z,96.68
2017-02-15T04:47:38.670Z,96.96
2017-02-15T04:52:35.016Z,97.15
2017-02-15T04:57:31.162Z,97.15
2017-02-15T05:02:28.431Z,97.53
2017-02-15T05:07:24.949Z,97.63
2017-02-15T05:12:21.111Z,98.38
2017-02-15T05:17:17.512Z,98.10
2017-02-15T05:22:13.873Z,97.34
2017-02-15T05:27:10.913Z,98.57
2017-02-15T05:32:07.076Z,98.10
2017-02-15T05:37:04.878Z,97.63
2017-02-15T05:42:00.864Z,97.91
2017-02-15T05:46:58.115Z,97.34
2017-02-15T05:51:54.911Z,97.91
2017-02-15T05:56:50.935Z,98.00
2017-02-15T06:01:47.988Z,97.63
2017-02-15T06:06:44.343Z,98.19
2017-02-15T06:11:40.763Z,98.66
2017-02-15T06:16:37.039Z,98.00
2017-02-15T06:21:33.793Z,97.63
2017-02-15T06:26:30.204Z,97.34
2017-02-15T06:31:26.501Z,97.63
2017-02-15T06:36:23.144Z,98.38
2017-02-15T06:41:19.909Z,98.38
2017-02-15T06:46:17.046Z,98.76
2017-02-15T06:51:13.524Z,99.23
2017-02-15T06:56:10.043Z,98.57
2017-02-15T07:01:06.508Z,98.76
2017-02-15T07:06:03.678Z,98.28
2017-02-15T07:11:00.055Z,97.81
2017-02-15T07:15:57.361Z,97.63
2017-02-15T07:20:53.441Z,97.77
2017-02-15T07:25:50.665Z,97.86
2017-02-15T07:30:47.021Z,97.30
2017-02-15T07:35:43.607Z,97.01
2017-02-15T07:40:40.688Z,96.73
2017-02-15T07:45:37.197Z,95.50
2017-02-15T07:50:34.275Z,94.89
2017-02-15T07:55:30.847Z,94.23
2017-02-15T08:00:27.399Z,93.18
2017-02-15T08:05:23.844Z,92.43
2017-02-15T08:10:20.686Z,90.53
2017-02-15T08:15:17.263Z,91.05
2017-02-15T08:20:13.760Z,90.30
2017-02-15T08:25:10.245Z,89.54
2017-02-15T08:30:06.885Z,89.73
2017-02-15T08:35:03.331Z,88.54
2017-02-15T08:40:00.291Z,88.07
2017-02-15T08:44:56.559Z,87.69
2017-02-15T08:49:53.567Z,86.55
2017-02-15T08:54:52.727Z,85.93
2017-02-15T08:59:48.637Z,85.46
2017-02-15T09:04:45.181Z,84.61
2017-02-15T09:09:41.897Z,85.03
2017-02-15T09:14:38.480Z,82.04
2017-02-15T09:19:35.197Z,80.71
2017-02-15T09:24:32.354Z,79.76
2017-02-15T09:29:28.996Z,78.19
2017-02-15T09:34:25.621Z,77.43
2017-02-15T09:39:22.671Z,76.20
2017-02-15T09:44:19.352Z,73.99
2017-02-15T09:49:17.294Z,70.42
2017-02-15T09:54:13.868Z,70.13
2017-02-15T09:59:10.855Z,68.90
2017-02-15T10:04:07.608Z,67.22
2017-02-15T10:09:04.223Z,64.50
2017-02-15T10:14:01.108Z,66.20
2017-02-15T10:18:59.638Z,66.20
2017-02-15T10:23:55.677Z,65.73
2017-02-15T10:28:53.326Z,66.11
2017-02-15T10:33:49.786Z,64.90
2017-02-15T10:38:46.609Z,62.75
2017-02-15T10:43:43.240Z,63.67
2017-02-15T10:48:39.871Z,61.13
2017-02-15T10:53:36.693Z,59.74
2017-02-15T10:58:33.510Z,59.26
2017-02-15T11:03:30.234Z,56.46
2017-02-15T11:08:27.350Z,53.88
2017-02-15T11:13:24.760Z,54.83
2017-02-15T11:18:22.591Z,53.05
2017-02-15T11:23:19.500Z,51.17
2017-02-15T11:28:16.817Z,49.98
2017-02-15T11:33:13.562Z,47.39
2017-02-15T11:38:10.371Z,47.97
2017-02-15T11:43:08.310Z,47.32
2017-02-15T11:48:04.881Z,44.50
2017-02-15T11:53:02.025Z,44.95
2017-02-15T11:57:58.356Z,46.48
2017-02-15T12:02:55.010Z,48.47
2017-02-15T12:07:52.595Z,46.31
2017-02-15T12:12:50.153Z,45.26
2017-02-15T12:17:46.801Z,47.44
2017-02-15T12:22:43.577Z,48.83
2017-02-15T12:27:39.882Z,50.90
2017-02-15T12:32:36.360Z,50.45
2017-02-15T12:37:32.614Z,50.16
2017-02-15T12:42:29.326Z,50.16
2017-02-15T12:47:26.182Z,49.21
2017-02-15T12:52:22.471Z,50.07
2017-02-15T12:57:19.963Z,48.97
2017-02-15T13:02:16.216Z,48.66
2017-02-15T13:07:13.198Z,48.68
2017-02-15T13:12:09.738Z,49.78
2017-02-15T13:17:06.882Z,51.48
2017-02-15T13:22:03.244Z,52.72
2017-02-15T13:27:02.449Z,52.15
2017-02-15T13:31:58.297Z,53.17
2017-02-15T13:36:55.018Z,52.36
2017-02-15T13:41:51.735Z,52.91
2017-02-15T13:46:48.262Z,51.86
2017-02-15T13:51:45.901Z,51.50
2017-02-15T13:56:42.061Z,50.84
2017-02-15T14:01:38.939Z,51.19
2017-02-15T14:06:35.583Z,48.21
2017-02-15T14:11:32.558Z,45.02
2017-02-15T14:16:29.623Z,46.31
2017-02-15T14:21:26.101Z,47.63
2017-02-15T14:26:22.605Z,49.33
2017-02-15T14:31:19.028Z,49.88
2017-02-15T14:36:15.342Z,50.84
2017-02-15T14:41:11.844Z,49.52
2017-02-15T14:46:09.431Z,49.90
2017-02-15T14:51:06.009Z,49.71
2017-02-15T14:56:02.665Z,48.95
2017-02-15T15:00:59.291Z,49.59
2017-02-15T15:05:55.698Z,50.09
2017-02-15T15:10:52.485Z,50.64
2017-02-15T15:15:48.860Z,52.62
2017-02-15T15:20:45.365Z,55.20
2017-02-15T15:25:42.400Z,56.80
2017-02-15T15:30:38.428Z,57.65
2017-02-15T15:35:35.124Z,57.56
2017-02-15T15:40:31.573Z,58.42
2017-02-15T15:45:27.579Z,59.44
2017-02-15T15:50:24.183Z,60.39
2017-02-15T15:55:20.486Z,61.70
2017-02-15T16:00:16.686Z,62.08
2017-02-15T16:05:13.466Z,62.27
2017-02-15T16:10:09.703Z,63.32
2017-02-15T16:15:06.191Z,63.99
2017-02-15T16:20:02.606Z,66.15
2017-02-15T16:24:59.441Z,66.05
2017-02-15T16:29:55.944Z,67.48
2017-02-15T16:34:53.066Z,68.21
2017-02-15T16:39:49.387Z,69.89
2017-02-15T16:44:46.706Z,70.65
2017-02-15T16:49:42.500Z,71.19
2017-02-15T16:54:39.341Z,72.24
2017-02-15T16:59:35.563Z,72.81
2017-02-15T17:04:31.681Z,73.66
2017-02-15T17:09:28.347Z,72.42
2017-02-15T17:14:25.563Z,72.62
2017-02-15T17:19:23.230Z,72.27
2017-02-15T17:24:19.583Z,72.62
2017-02-15T17:29:15.965Z,73.47
2017-02-15T17:34:12.420Z,73.47
2017-02-15T17:39:08.720Z,72.46
2017-02-15T17:44:06.623Z,72.27
2017-02-15T17:49:03.143Z,72.90
2017-02-15T17:53:59.544Z,74.99
2017-02-15T17:58:56.653Z,76.57
2017-02-15T18:03:52.547Z,78.10
2017-02-15T18:08:48.928Z,78.44
2017-02-15T18:13:45.139Z,76.76
2017-02-15T18:18:42.387Z,73.85
2017-02-15T18:23:39.233Z,73.28
2017-02-15T18:28:36.048Z,73.38
2017-02-15T18:33:32.812Z,74.14
2017-02-15T18:38:29.367Z,74.80
2017-02-15T18:43:25.718Z,75.19
2017-02-15T18:48:21.827Z,76.29
2017-02-15T18:53:17.986Z,77.81
2017-02-15T18:58:14.869Z,78.38
2017-02-15T19:03:10.807Z,78.53
2017-02-15T19:08:07.457Z,79.39
2017-02-15T19:13:04.087Z,80.44
2017-02-15T19:18:00.549Z,80.63
2017-02-15T19:22:57.806Z,80.91
2017-02-15T19:27:54.479Z,80.82
2017-02-15T19:32:51.115Z,79.86
2017-02-15T19:37:47.132Z,80.34
2017-02-15T19:42:43.810Z,80.44
2017-02-15T19:47:40.216Z,81.01
2017-02-15T19:52:37.366Z,80.91
2017-02-15T19:57:33.173Z,80.58
2017-02-15T20:02:29.570Z,81.54
2017-02-15T20:07:26.005Z,81.16
2017-02-15T20:12:22.373Z,82.29
2017-02-15T20:17:19.200Z,82.29
2017-02-15T20:22:15.675Z,82.01
2017-02-15T20:27:12.472Z,82.26
2017-02-15T20:32:09.092Z,82.92
2017-02-15T20:37:05.533Z,82.39
2017-02-15T20:42:01.993Z,82.01
2017-02-15T20:46:58.585Z,82.01
2017-02-15T20:51:55.071Z,80.68
2017-02-15T20:56:51.580Z,81.16
2017-02-15T21:01:48.614Z,81.25
2017-02-15T21:06:45.517Z,80.49
2017-02-15T21:11:41.894Z,80.49
2017-02-15T21:16:39.161Z,80.77
2017-02-15T21:21:35.898Z,80.87
2017-02-15T21:26:32.294Z,81.06
2017-02-15T21:31:28.701Z,81.16
2017-02-15T21:36:25.233Z,81.25
2017-02-15T21:41:21.751Z,81.16
2017-02-15T21:46:18.266Z,81.06
2017-02-15T21:51:14.893Z,81.16
2017-02-15T21:56:11.496Z,81.20
2017-02-15T22:01:07.675Z,81.20
2017-02-15T22:06:04.378Z,81.29
2017-02-15T22:11:00.978Z,80.15
2017-02-15T22:15:57.159Z,79.86
2017-02-15T22:20:53.915Z,79.24
2017-02-15T22:25:50.657Z,78.86
2017-02-15T22:30:46.911Z,78.38
2017-02-15T22:35:43.618Z,78.29
2017-02-15T22:40:40.688Z,77.81
2017-02-15T22:45:37.676Z,78.38
2017-02-15T22:50:34.176Z,78.38
2017-02-15T22:55:31.938Z,78.77
2017-02-15T23:00:28.419Z,78.48
2017-02-15T23:05:25.077Z,78.77
2017-02-15T23:10:21.747Z,79.62
2017-02-15T23:15:17.997Z,80.63
2017-02-15T23:20:14.678Z,81.38
2017-02-15T23:25:11.178Z,81.67
2017-02-15T23:30:07.460Z,83.00
2017-02-15T23:35:03.886Z,83.39
2017-02-15T23:40:00.102Z,83.95
2017-02-15T23:44:57.018Z,84.48
2017-02-15T23:49:53.327Z,85.15
2017-02-15T23:54:49.738Z,85.72
2017-02-15T23:59:46.176Z,86.47
